sensor_id;sensor_type;location;lat;lon;timestamp;P1;durP1;ratioP1;P2;durP2;ratioP2
31306;SDS011;17935;51.120;13.132;2023-04-06T00:01:36;29.35;;;14.48;;
31306;SDS011;17935;51.120;13.132;2023-04-06T00:04:02;25.77;;;13.80;;
31306;SDS011;17935;51.120;13.132;2023-04-06T00:06:28;27.90;;;14.68;;
31306;SDS011;17935;51.120;13.132;2023-04-06T00:08:55;30.15;;;15.38;;
31306;SDS011;17935;51.120;13.132;2023-04-06T00:11:21;25.60;;;13.43;;
31306;SDS011;17935;51.120;13.132;2023-04-06T00:13:47;36.65;;;14.88;;
31306;SDS011;17935;51.120;13.132;2023-04-06T00:16:13;23.27;;;14.35;;
31306;SDS011;17935;51.120;13.132;2023-04-06T00:18:39;31.15;;;14.60;;
31306;SDS011;17935;51.120;13.132;2023-04-06T00:21:05;25.17;;;14.20;;
31306;SDS011;17935;51.120;13.132;2023-04-06T00:23:31;22.65;;;13.30;;
31306;SDS011;17935;51.120;13.132;2023-04-06T00:25:57;24.95;;;13.85;;
31306;SDS011;17935;51.120;13.132;2023-04-06T00:28:23;26.70;;;11.90;;
31306;SDS011;17935;51.120;13.132;2023-04-06T00:30:52;21.65;;;12.82;;
31306;SDS011;17935;51.120;13.132;2023-04-06T00:33:19;27.55;;;12.75;;
31306;SDS011;17935;51.120;13.132;2023-04-06T00:35:45;17.50;;;11.27;;
31306;SDS011;17935;51.120;13.132;2023-04-06T00:38:11;20.75;;;11.60;;
31306;SDS011;17935;51.120;13.132;2023-04-06T00:40:37;18.02;;;12.13;;
31306;SDS011;17935;51.120;13.132;2023-04-06T00:43:05;18.45;;;11.35;;
31306;SDS011;17935;51.120;13.132;2023-04-06T00:45:31;18.65;;;11.50;;
31306;SDS011;17935;51.120;13.132;2023-04-06T00:47:57;17.98;;;11.00;;
31306;SDS011;17935;51.120;13.132;2023-04-06T00:50:23;22.73;;;11.48;;
31306;SDS011;17935;51.120;13.132;2023-04-06T00:52:48;16.45;;;10.27;;
31306;SDS011;17935;51.120;13.132;2023-04-06T00:55:15;19.65;;;11.77;;
31306;SDS011;17935;51.120;13.132;2023-04-06T00:57:41;20.63;;;10.43;;
31306;SDS011;17935;51.120;13.132;2023-04-06T01:00:07;17.08;;;10.10;;
31306;SDS011;17935;51.120;13.132;2023-04-06T01:02:33;14.07;;;10.18;;
31306;SDS011;17935;51.120;13.132;2023-04-06T01:04:59;21.25;;;11.75;;
31306;SDS011;17935;51.120;13.132;2023-04-06T01:07:25;20.88;;;10.43;;
31306;SDS011;17935;51.120;13.132;2023-04-06T01:09:53;19.45;;;10.63;;
31306;SDS011;17935;51.120;13.132;2023-04-06T01:12:19;16.27;;;9.77;;
31306;SDS011;17935;51.120;13.132;2023-04-06T01:14:44;16.15;;;10.02;;
31306;SDS011;17935;51.120;13.132;2023-04-06T01:17:10;14.88;;;9.38;;
31306;SDS011;17935;51.120;13.132;2023-04-06T01:19:36;17.40;;;10.38;;
31306;SDS011;17935;51.120;13.132;2023-04-06T01:22:02;15.60;;;10.07;;
31306;SDS011;17935;51.120;13.132;2023-04-06T01:24:28;16.50;;;10.13;;
31306;SDS011;17935;51.120;13.132;2023-04-06T01:26:54;17.13;;;9.60;;
31306;SDS011;17935;51.120;13.132;2023-04-06T01:29:21;15.82;;;9.48;;
31306;SDS011;17935;51.120;13.132;2023-04-06T01:31:47;15.00;;;8.68;;
31306;SDS011;17935;51.120;13.132;2023-04-06T01:34:13;16.67;;;10.18;;
31306;SDS011;17935;51.120;13.132;2023-04-06T01:36:39;16.00;;;9.25;;
31306;SDS011;17935;51.120;13.132;2023-04-06T01:39:05;20.88;;;10.40;;
31306;SDS011;17935;51.120;13.132;2023-04-06T01:41:31;16.10;;;9.43;;
31306;SDS011;17935;51.120;13.132;2023-04-06T01:43:57;19.25;;;10.38;;
31306;SDS011;17935;51.120;13.132;2023-04-06T01:46:23;19.73;;;9.95;;
31306;SDS011;17935;51.120;13.132;2023-04-06T01:48:49;16.92;;;9.98;;
31306;SDS011;17935;51.120;13.132;2023-04-06T01:51:15;22.48;;;9.68;;
31306;SDS011;17935;51.120;13.132;2023-04-06T01:53:41;14.15;;;9.60;;
31306;SDS011;17935;51.120;13.132;2023-04-06T01:56:07;22.35;;;13.40;;
31306;SDS011;17935;51.120;13.132;2023-04-06T01:58:33;15.90;;;10.23;;
31306;SDS011;17935;51.120;13.132;2023-04-06T02:00:59;16.45;;;9.75;;
31306;SDS011;17935;51.120;13.132;2023-04-06T02:03:25;16.83;;;9.82;;
31306;SDS011;17935;51.120;13.132;2023-04-06T02:05:51;14.32;;;9.10;;
31306;SDS011;17935;51.120;13.132;2023-04-06T02:08:17;14.95;;;9.52;;
31306;SDS011;17935;51.120;13.132;2023-04-06T02:10:42;16.00;;;9.18;;
31306;SDS011;17935;51.120;13.132;2023-04-06T02:13:08;13.70;;;9.52;;
31306;SDS011;17935;51.120;13.132;2023-04-06T02:15:34;11.88;;;8.07;;
31306;SDS011;17935;51.120;13.132;2023-04-06T02:18:00;14.55;;;9.43;;
31306;SDS011;17935;51.120;13.132;2023-04-06T02:20:26;17.65;;;9.27;;
31306;SDS011;17935;51.120;13.132;2023-04-06T02:22:52;13.77;;;8.13;;
31306;SDS011;17935;51.120;13.132;2023-04-06T02:25:18;21.00;;;9.23;;
31306;SDS011;17935;51.120;13.132;2023-04-06T02:27:44;14.63;;;9.07;;
31306;SDS011;17935;51.120;13.132;2023-04-06T02:30:10;14.27;;;9.00;;
31306;SDS011;17935;51.120;13.132;2023-04-06T02:32:36;16.65;;;8.43;;
31306;SDS011;17935;51.120;13.132;2023-04-06T02:35:02;14.73;;;9.27;;
31306;SDS011;17935;51.120;13.132;2023-04-06T02:37:28;12.18;;;8.43;;
31306;SDS011;17935;51.120;13.132;2023-04-06T02:39:54;16.98;;;9.43;;
31306;SDS011;17935;51.120;13.132;2023-04-06T02:42:20;15.80;;;9.13;;
31306;SDS011;17935;51.120;13.132;2023-04-06T02:44:46;12.57;;;8.55;;
31306;SDS011;17935;51.120;13.132;2023-04-06T02:47:12;16.65;;;9.27;;
31306;SDS011;17935;51.120;13.132;2023-04-06T02:49:38;15.88;;;8.85;;
31306;SDS011;17935;51.120;13.132;2023-04-06T02:52:04;11.93;;;8.93;;
31306;SDS011;17935;51.120;13.132;2023-04-06T02:54:30;13.98;;;9.55;;
31306;SDS011;17935;51.120;13.132;2023-04-06T02:56:56;14.88;;;9.82;;
31306;SDS011;17935;51.120;13.132;2023-04-06T02:59:21;16.30;;;10.65;;
31306;SDS011;17935;51.120;13.132;2023-04-06T03:01:47;20.83;;;10.35;;
31306;SDS011;17935;51.120;13.132;2023-04-06T03:04:13;16.50;;;9.38;;
31306;SDS011;17935;51.120;13.132;2023-04-06T03:06:39;15.85;;;10.95;;
31306;SDS011;17935;51.120;13.132;2023-04-06T03:09:06;18.67;;;10.35;;
31306;SDS011;17935;51.120;13.132;2023-04-06T03:11:32;14.23;;;10.10;;
31306;SDS011;17935;51.120;13.132;2023-04-06T03:13:58;16.00;;;10.55;;
31306;SDS011;17935;51.120;13.132;2023-04-06T03:16:24;16.85;;;10.30;;
31306;SDS011;17935;51.120;13.132;2023-04-06T03:18:50;14.13;;;10.25;;
31306;SDS011;17935;51.120;13.132;2023-04-06T03:21:16;13.60;;;10.05;;
31306;SDS011;17935;51.120;13.132;2023-04-06T03:23:42;18.08;;;9.77;;
31306;SDS011;17935;51.120;13.132;2023-04-06T03:26:08;11.93;;;8.93;;
31306;SDS011;17935;51.120;13.132;2023-04-06T03:28:34;13.30;;;9.02;;
31306;SDS011;17935;51.120;13.132;2023-04-06T03:31:00;16.10;;;10.07;;
31306;SDS011;17935;51.120;13.132;2023-04-06T03:33:26;17.30;;;9.80;;
31306;SDS011;17935;51.120;13.132;2023-04-06T03:35:52;12.38;;;8.90;;
31306;SDS011;17935;51.120;13.132;2023-04-06T03:38:18;14.63;;;9.88;;
31306;SDS011;17935;51.120;13.132;2023-04-06T03:40:44;15.02;;;10.38;;
31306;SDS011;17935;51.120;13.132;2023-04-06T03:43:10;20.13;;;9.63;;
31306;SDS011;17935;51.120;13.132;2023-04-06T03:45:36;14.85;;;9.27;;
31306;SDS011;17935;51.120;13.132;2023-04-06T03:48:02;14.70;;;10.05;;
31306;SDS011;17935;51.120;13.132;2023-04-06T03:50:28;16.90;;;11.05;;
31306;SDS011;17935;51.120;13.132;2023-04-06T03:52:54;16.90;;;9.80;;
31306;SDS011;17935;51.120;13.132;2023-04-06T03:55:21;17.60;;;10.18;;
31306;SDS011;17935;51.120;13.132;2023-04-06T03:57:47;16.55;;;11.23;;
31306;SDS011;17935;51.120;13.132;2023-04-06T04:00:13;15.13;;;10.82;;
31306;SDS011;17935;51.120;13.132;2023-04-06T04:02:39;13.45;;;9.57;;
31306;SDS011;17935;51.120;13.132;2023-04-06T04:05:05;17.35;;;9.65;;
31306;SDS011;17935;51.120;13.132;2023-04-06T04:07:31;22.20;;;11.75;;
31306;SDS011;17935;51.120;13.132;2023-04-06T04:09:57;16.75;;;10.07;;
31306;SDS011;17935;51.120;13.132;2023-04-06T04:12:23;16.60;;;10.23;;
31306;SDS011;17935;51.120;13.132;2023-04-06T04:14:49;21.08;;;11.40;;
31306;SDS011;17935;51.120;13.132;2023-04-06T04:17:15;17.92;;;11.25;;
31306;SDS011;17935;51.120;13.132;2023-04-06T04:19:41;19.02;;;11.45;;
31306;SDS011;17935;51.120;13.132;2023-04-06T04:22:07;16.58;;;11.13;;
31306;SDS011;17935;51.120;13.132;2023-04-06T04:24:33;13.63;;;10.70;;
31306;SDS011;17935;51.120;13.132;2023-04-06T04:26:59;20.13;;;10.85;;
31306;SDS011;17935;51.120;13.132;2023-04-06T04:29:28;14.82;;;10.48;;
31306;SDS011;17935;51.120;13.132;2023-04-06T04:31:54;20.08;;;11.20;;
31306;SDS011;17935;51.120;13.132;2023-04-06T04:34:20;16.88;;;12.13;;
31306;SDS011;17935;51.120;13.132;2023-04-06T04:36:48;16.80;;;10.95;;
31306;SDS011;17935;51.120;13.132;2023-04-06T04:39:14;15.05;;;10.07;;
31306;SDS011;17935;51.120;13.132;2023-04-06T04:41:40;15.30;;;9.90;;
31306;SDS011;17935;51.120;13.132;2023-04-06T04:44:06;14.77;;;10.98;;
31306;SDS011;17935;51.120;13.132;2023-04-06T04:46:32;17.25;;;11.88;;
31306;SDS011;17935;51.120;13.132;2023-04-06T04:48:58;17.42;;;11.35;;
31306;SDS011;17935;51.120;13.132;2023-04-06T04:51:24;14.63;;;9.48;;
31306;SDS011;17935;51.120;13.132;2023-04-06T04:53:50;18.92;;;10.50;;
31306;SDS011;17935;51.120;13.132;2023-04-06T04:56:16;18.92;;;10.07;;
31306;SDS011;17935;51.120;13.132;2023-04-06T04:58:42;15.40;;;9.73;;
31306;SDS011;17935;51.120;13.132;2023-04-06T05:01:08;23.15;;;11.13;;
31306;SDS011;17935;51.120;13.132;2023-04-06T05:03:34;18.55;;;11.23;;
31306;SDS011;17935;51.120;13.132;2023-04-06T05:06:01;15.57;;;11.15;;
31306;SDS011;17935;51.120;13.132;2023-04-06T05:08:27;19.80;;;10.00;;
31306;SDS011;17935;51.120;13.132;2023-04-06T05:10:52;16.30;;;8.98;;
31306;SDS011;17935;51.120;13.132;2023-04-06T05:13:18;19.85;;;10.50;;
31306;SDS011;17935;51.120;13.132;2023-04-06T05:15:45;17.42;;;10.18;;
31306;SDS011;17935;51.120;13.132;2023-04-06T05:18:11;19.58;;;11.00;;
31306;SDS011;17935;51.120;13.132;2023-04-06T05:20:39;15.45;;;9.60;;
31306;SDS011;17935;51.120;13.132;2023-04-06T05:23:05;13.38;;;10.13;;
31306;SDS011;17935;51.120;13.132;2023-04-06T05:25:31;11.40;;;8.68;;
31306;SDS011;17935;51.120;13.132;2023-04-06T05:27:57;12.18;;;8.65;;
31306;SDS011;17935;51.120;13.132;2023-04-06T05:30:23;17.67;;;10.20;;
31306;SDS011;17935;51.120;13.132;2023-04-06T05:32:50;14.23;;;9.50;;
31306;SDS011;17935;51.120;13.132;2023-04-06T05:35:16;14.25;;;10.02;;
31306;SDS011;17935;51.120;13.132;2023-04-06T05:37:42;26.15;;;10.80;;
31306;SDS011;17935;51.120;13.132;2023-04-06T05:40:09;18.48;;;9.32;;
31306;SDS011;17935;51.120;13.132;2023-04-06T05:42:38;12.80;;;9.10;;
31306;SDS011;17935;51.120;13.132;2023-04-06T05:45:05;12.95;;;9.15;;
31306;SDS011;17935;51.120;13.132;2023-04-06T05:47:31;12.63;;;7.88;;
31306;SDS011;17935;51.120;13.132;2023-04-06T05:49:57;14.93;;;9.85;;
31306;SDS011;17935;51.120;13.132;2023-04-06T05:52:23;15.38;;;8.20;;
31306;SDS011;17935;51.120;13.132;2023-04-06T05:54:49;10.50;;;7.25;;
31306;SDS011;17935;51.120;13.132;2023-04-06T05:57:15;14.00;;;7.28;;
31306;SDS011;17935;51.120;13.132;2023-04-06T05:59:44;10.60;;;6.93;;
31306;SDS011;17935;51.120;13.132;2023-04-06T06:02:10;10.38;;;6.93;;
31306;SDS011;17935;51.120;13.132;2023-04-06T06:04:36;10.88;;;7.95;;
31306;SDS011;17935;51.120;13.132;2023-04-06T06:07:02;13.00;;;8.10;;
31306;SDS011;17935;51.120;13.132;2023-04-06T06:09:28;12.60;;;8.23;;
31306;SDS011;17935;51.120;13.132;2023-04-06T06:11:54;18.73;;;8.75;;
31306;SDS011;17935;51.120;13.132;2023-04-06T06:14:20;11.60;;;7.88;;
31306;SDS011;17935;51.120;13.132;2023-04-06T06:16:46;13.65;;;7.20;;
31306;SDS011;17935;51.120;13.132;2023-04-06T06:19:12;10.18;;;7.90;;
31306;SDS011;17935;51.120;13.132;2023-04-06T06:21:38;8.63;;;7.07;;
31306;SDS011;17935;51.120;13.132;2023-04-06T06:24:05;14.32;;;8.25;;
31306;SDS011;17935;51.120;13.132;2023-04-06T06:26:30;13.73;;;7.07;;
31306;SDS011;17935;51.120;13.132;2023-04-06T06:28:56;11.05;;;7.47;;
31306;SDS011;17935;51.120;13.132;2023-04-06T06:31:22;16.75;;;8.25;;
31306;SDS011;17935;51.120;13.132;2023-04-06T06:33:49;15.20;;;8.90;;
31306;SDS011;17935;51.120;13.132;2023-04-06T06:36:16;12.13;;;8.60;;
31306;SDS011;17935;51.120;13.132;2023-04-06T06:38:42;10.63;;;8.05;;
31306;SDS011;17935;51.120;13.132;2023-04-06T06:41:08;12.75;;;8.27;;
31306;SDS011;17935;51.120;13.132;2023-04-06T06:43:34;12.98;;;7.50;;
31306;SDS011;17935;51.120;13.132;2023-04-06T06:46:00;14.75;;;7.35;;
31306;SDS011;17935;51.120;13.132;2023-04-06T06:48:26;12.27;;;7.03;;
31306;SDS011;17935;51.120;13.132;2023-04-06T06:50:52;11.55;;;6.35;;
31306;SDS011;17935;51.120;13.132;2023-04-06T06:53:19;9.52;;;7.03;;
31306;SDS011;17935;51.120;13.132;2023-04-06T06:55:45;15.45;;;6.97;;
31306;SDS011;17935;51.120;13.132;2023-04-06T06:58:11;9.90;;;6.32;;
31306;SDS011;17935;51.120;13.132;2023-04-06T07:00:37;17.02;;;6.22;;
31306;SDS011;17935;51.120;13.132;2023-04-06T07:03:03;10.98;;;6.97;;
31306;SDS011;17935;51.120;13.132;2023-04-06T07:05:29;10.25;;;6.68;;
31306;SDS011;17935;51.120;13.132;2023-04-06T07:07:55;8.45;;;6.00;;
31306;SDS011;17935;51.120;13.132;2023-04-06T07:10:21;10.32;;;6.35;;
31306;SDS011;17935;51.120;13.132;2023-04-06T07:12:47;12.50;;;6.40;;
31306;SDS011;17935;51.120;13.132;2023-04-06T07:15:13;9.48;;;6.63;;
31306;SDS011;17935;51.120;13.132;2023-04-06T07:17:39;10.05;;;5.55;;
31306;SDS011;17935;51.120;13.132;2023-04-06T07:20:10;9.82;;;5.78;;
31306;SDS011;17935;51.120;13.132;2023-04-06T07:22:36;10.00;;;5.95;;
31306;SDS011;17935;51.120;13.132;2023-04-06T07:25:01;9.80;;;6.50;;
31306;SDS011;17935;51.120;13.132;2023-04-06T07:27:27;9.43;;;5.88;;
31306;SDS011;17935;51.120;13.132;2023-04-06T07:29:53;8.05;;;6.35;;
31306;SDS011;17935;51.120;13.132;2023-04-06T07:32:19;10.20;;;6.70;;
31306;SDS011;17935;51.120;13.132;2023-04-06T07:34:45;8.80;;;6.32;;
31306;SDS011;17935;51.120;13.132;2023-04-06T07:37:11;12.88;;;5.85;;
31306;SDS011;17935;51.120;13.132;2023-04-06T07:39:37;10.75;;;6.80;;
31306;SDS011;17935;51.120;13.132;2023-04-06T07:42:03;9.98;;;6.22;;
31306;SDS011;17935;51.120;13.132;2023-04-06T07:44:29;8.20;;;6.20;;
31306;SDS011;17935;51.120;13.132;2023-04-06T07:46:56;7.18;;;5.32;;
31306;SDS011;17935;51.120;13.132;2023-04-06T07:49:22;6.25;;;4.70;;
31306;SDS011;17935;51.120;13.132;2023-04-06T07:51:48;6.55;;;5.03;;
31306;SDS011;17935;51.120;13.132;2023-04-06T07:54:14;10.00;;;5.38;;
31306;SDS011;17935;51.120;13.132;2023-04-06T07:56:40;9.93;;;5.18;;
31306;SDS011;17935;51.120;13.132;2023-04-06T07:59:06;7.68;;;4.60;;
31306;SDS011;17935;51.120;13.132;2023-04-06T08:01:32;5.18;;;4.25;;
31306;SDS011;17935;51.120;13.132;2023-04-06T08:03:58;6.60;;;4.90;;
31306;SDS011;17935;51.120;13.132;2023-04-06T08:06:26;9.57;;;4.28;;
31306;SDS011;17935;51.120;13.132;2023-04-06T08:08:51;6.97;;;4.82;;
31306;SDS011;17935;51.120;13.132;2023-04-06T08:11:17;8.07;;;5.03;;
31306;SDS011;17935;51.120;13.132;2023-04-06T08:13:43;5.30;;;4.25;;
31306;SDS011;17935;51.120;13.132;2023-04-06T08:16:09;6.90;;;4.20;;
31306;SDS011;17935;51.120;13.132;2023-04-06T08:18:35;6.68;;;4.63;;
31306;SDS011;17935;51.120;13.132;2023-04-06T08:21:01;4.57;;;3.75;;
31306;SDS011;17935;51.120;13.132;2023-04-06T08:23:27;5.40;;;4.13;;
31306;SDS011;17935;51.120;13.132;2023-04-06T08:25:53;5.63;;;3.90;;
31306;SDS011;17935;51.120;13.132;2023-04-06T08:28:19;7.68;;;4.05;;
31306;SDS011;17935;51.120;13.132;2023-04-06T08:30:46;6.07;;;4.10;;
31306;SDS011;17935;51.120;13.132;2023-04-06T08:33:12;4.80;;;3.67;;
31306;SDS011;17935;51.120;13.132;2023-04-06T08:35:38;5.88;;;4.25;;
31306;SDS011;17935;51.120;13.132;2023-04-06T08:38:03;4.97;;;3.30;;
31306;SDS011;17935;51.120;13.132;2023-04-06T08:40:30;6.72;;;3.78;;
31306;SDS011;17935;51.120;13.132;2023-04-06T08:42:56;4.63;;;3.42;;
31306;SDS011;17935;51.120;13.132;2023-04-06T08:45:26;3.70;;;3.30;;
31306;SDS011;17935;51.120;13.132;2023-04-06T08:47:52;4.85;;;3.38;;
31306;SDS011;17935;51.120;13.132;2023-04-06T08:50:19;6.30;;;3.67;;
31306;SDS011;17935;51.120;13.132;2023-04-06T08:52:46;7.78;;;4.28;;
31306;SDS011;17935;51.120;13.132;2023-04-06T08:55:12;5.18;;;2.80;;
31306;SDS011;17935;51.120;13.132;2023-04-06T08:57:38;4.07;;;2.55;;
31306;SDS011;17935;51.120;13.132;2023-04-06T09:00:05;4.25;;;2.85;;
31306;SDS011;17935;51.120;13.132;2023-04-06T09:02:31;3.50;;;3.03;;
31306;SDS011;17935;51.120;13.132;2023-04-06T09:04:58;3.55;;;2.83;;
31306;SDS011;17935;51.120;13.132;2023-04-06T09:07:24;5.57;;;2.72;;
31306;SDS011;17935;51.120;13.132;2023-04-06T09:09:50;3.33;;;2.63;;
31306;SDS011;17935;51.120;13.132;2023-04-06T09:12:23;5.68;;;3.63;;
31306;SDS011;17935;51.120;13.132;2023-04-06T09:14:49;5.40;;;3.33;;
31306;SDS011;17935;51.120;13.132;2023-04-06T09:17:25;5.50;;;3.88;;
31306;SDS011;17935;51.120;13.132;2023-04-06T09:19:52;6.68;;;4.18;;
31306;SDS011;17935;51.120;13.132;2023-04-06T09:22:18;7.28;;;5.50;;
31306;SDS011;17935;51.120;13.132;2023-04-06T09:24:45;5.35;;;4.25;;
31306;SDS011;17935;51.120;13.132;2023-04-06T09:27:11;5.05;;;3.95;;
31306;SDS011;17935;51.120;13.132;2023-04-06T09:29:38;5.97;;;3.53;;
31306;SDS011;17935;51.120;13.132;2023-04-06T09:32:04;6.65;;;3.85;;
31306;SDS011;17935;51.120;13.132;2023-04-06T09:34:30;6.50;;;3.45;;
31306;SDS011;17935;51.120;13.132;2023-04-06T09:36:57;4.15;;;2.67;;
31306;SDS011;17935;51.120;13.132;2023-04-06T09:39:23;3.33;;;2.45;;
31306;SDS011;17935;51.120;13.132;2023-04-06T09:41:50;2.33;;;2.13;;
31306;SDS011;17935;51.120;13.132;2023-04-06T09:44:17;3.05;;;2.08;;
31306;SDS011;17935;51.120;13.132;2023-04-06T09:46:43;3.53;;;3.10;;
31306;SDS011;17935;51.120;13.132;2023-04-06T09:49:10;2.53;;;2.05;;
31306;SDS011;17935;51.120;13.132;2023-04-06T09:54:02;3.05;;;2.80;;
31306;SDS011;17935;51.120;13.132;2023-04-06T10:01:55;3.97;;;2.65;;
31306;SDS011;17935;51.120;13.132;2023-04-06T10:04:40;7.63;;;3.25;;
31306;SDS011;17935;51.120;13.132;2023-04-06T10:09:33;25.52;;;4.25;;
31306;SDS011;17935;51.120;13.132;2023-04-06T10:12:06;6.00;;;3.28;;
31306;SDS011;17935;51.120;13.132;2023-04-06T10:14:33;3.95;;;3.33;;
31306;SDS011;17935;51.120;13.132;2023-04-06T10:17:05;4.07;;;2.72;;
31306;SDS011;17935;51.120;13.132;2023-04-06T10:19:40;6.50;;;2.95;;
31306;SDS011;17935;51.120;13.132;2023-04-06T10:22:07;6.78;;;2.95;;
31306;SDS011;17935;51.120;13.132;2023-04-06T10:24:35;3.17;;;2.63;;
31306;SDS011;17935;51.120;13.132;2023-04-06T10:27:01;4.07;;;3.03;;
31306;SDS011;17935;51.120;13.132;2023-04-06T10:29:27;4.95;;;3.22;;
31306;SDS011;17935;51.120;13.132;2023-04-06T10:31:53;3.85;;;3.10;;
31306;SDS011;17935;51.120;13.132;2023-04-06T10:34:20;4.80;;;3.60;;
31306;SDS011;17935;51.120;13.132;2023-04-06T10:36:46;6.72;;;3.40;;
31306;SDS011;17935;51.120;13.132;2023-04-06T10:39:12;4.72;;;3.40;;
31306;SDS011;17935;51.120;13.132;2023-04-06T10:41:42;7.95;;;4.07;;
31306;SDS011;17935;51.120;13.132;2023-04-06T10:44:16;4.82;;;3.88;;
31306;SDS011;17935;51.120;13.132;2023-04-06T10:46:42;5.97;;;4.03;;
31306;SDS011;17935;51.120;13.132;2023-04-06T10:49:17;13.90;;;3.53;;
31306;SDS011;17935;51.120;13.132;2023-04-06T10:51:43;6.63;;;3.47;;
31306;SDS011;17935;51.120;13.132;2023-04-06T10:54:09;5.95;;;3.65;;
31306;SDS011;17935;51.120;13.132;2023-04-06T10:56:38;8.40;;;4.18;;
31306;SDS011;17935;51.120;13.132;2023-04-06T10:59:05;4.95;;;4.13;;
31306;SDS011;17935;51.120;13.132;2023-04-06T11:01:32;5.65;;;3.78;;
31306;SDS011;17935;51.120;13.132;2023-04-06T11:03:58;6.00;;;3.67;;
31306;SDS011;17935;51.120;13.132;2023-04-06T11:06:28;8.80;;;4.15;;
31306;SDS011;17935;51.120;13.132;2023-04-06T11:08:56;8.90;;;4.28;;
31306;SDS011;17935;51.120;13.132;2023-04-06T11:11:23;6.32;;;3.95;;
31306;SDS011;17935;51.120;13.132;2023-04-06T11:13:55;5.30;;;4.22;;
31306;SDS011;17935;51.120;13.132;2023-04-06T11:16:22;6.55;;;4.85;;
31306;SDS011;17935;51.120;13.132;2023-04-06T11:18:54;7.35;;;4.80;;
31306;SDS011;17935;51.120;13.132;2023-04-06T11:21:31;6.95;;;4.85;;
31306;SDS011;17935;51.120;13.132;2023-04-06T11:24:17;18.52;;;6.57;;
31306;SDS011;17935;51.120;13.132;2023-04-06T11:26:50;10.02;;;4.93;;
31306;SDS011;17935;51.120;13.132;2023-04-06T11:29:17;6.75;;;4.88;;
31306;SDS011;17935;51.120;13.132;2023-04-06T11:31:47;6.80;;;4.75;;
31306;SDS011;17935;51.120;13.132;2023-04-06T11:34:17;5.93;;;5.05;;
31306;SDS011;17935;51.120;13.132;2023-04-06T11:36:44;8.32;;;4.78;;
31306;SDS011;17935;51.120;13.132;2023-04-06T11:39:10;6.82;;;4.80;;
31306;SDS011;17935;51.120;13.132;2023-04-06T11:41:37;4.95;;;4.15;;
31306;SDS011;17935;51.120;13.132;2023-04-06T11:44:03;6.13;;;4.43;;
31306;SDS011;17935;51.120;13.132;2023-04-06T11:46:29;7.18;;;4.63;;
31306;SDS011;17935;51.120;13.132;2023-04-06T11:48:59;5.97;;;4.55;;
31306;SDS011;17935;51.120;13.132;2023-04-06T11:51:25;6.82;;;5.00;;
31306;SDS011;17935;51.120;13.132;2023-04-06T11:53:51;9.80;;;4.80;;
31306;SDS011;17935;51.120;13.132;2023-04-06T11:56:29;5.70;;;4.63;;
31306;SDS011;17935;51.120;13.132;2023-04-06T11:58:56;4.38;;;3.92;;
31306;SDS011;17935;51.120;13.132;2023-04-06T12:01:23;5.60;;;4.40;;
31306;SDS011;17935;51.120;13.132;2023-04-06T12:03:49;4.88;;;4.43;;
31306;SDS011;17935;51.120;13.132;2023-04-06T12:06:15;10.07;;;5.05;;
31306;SDS011;17935;51.120;13.132;2023-04-06T12:08:41;8.82;;;4.93;;
31306;SDS011;17935;51.120;13.132;2023-04-06T12:11:07;8.23;;;4.38;;
31306;SDS011;17935;51.120;13.132;2023-04-06T12:13:33;6.78;;;4.40;;
31306;SDS011;17935;51.120;13.132;2023-04-06T12:15:59;7.55;;;4.78;;
31306;SDS011;17935;51.120;13.132;2023-04-06T12:18:25;7.78;;;4.63;;
31306;SDS011;17935;51.120;13.132;2023-04-06T12:20:51;8.18;;;4.50;;
31306;SDS011;17935;51.120;13.132;2023-04-06T12:23:18;9.20;;;4.90;;
31306;SDS011;17935;51.120;13.132;2023-04-06T12:25:44;7.25;;;4.70;;
31306;SDS011;17935;51.120;13.132;2023-04-06T12:28:10;9.35;;;4.97;;
31306;SDS011;17935;51.120;13.132;2023-04-06T12:30:37;7.30;;;4.93;;
31306;SDS011;17935;51.120;13.132;2023-04-06T12:33:03;5.40;;;4.05;;
31306;SDS011;17935;51.120;13.132;2023-04-06T12:35:32;6.13;;;4.80;;
31306;SDS011;17935;51.120;13.132;2023-04-06T12:37:58;9.18;;;5.10;;
31306;SDS011;17935;51.120;13.132;2023-04-06T12:40:25;5.40;;;4.90;;
31306;SDS011;17935;51.120;13.132;2023-04-06T12:42:51;6.60;;;4.93;;
31306;SDS011;17935;51.120;13.132;2023-04-06T12:45:16;8.90;;;5.93;;
31306;SDS011;17935;51.120;13.132;2023-04-06T12:47:42;8.13;;;4.97;;
31306;SDS011;17935;51.120;13.132;2023-04-06T12:50:08;8.48;;;5.38;;
31306;SDS011;17935;51.120;13.132;2023-04-06T12:52:35;15.10;;;5.72;;
31306;SDS011;17935;51.120;13.132;2023-04-06T12:55:01;7.82;;;5.35;;
31306;SDS011;17935;51.120;13.132;2023-04-06T12:57:27;10.52;;;5.57;;
31306;SDS011;17935;51.120;13.132;2023-04-06T12:59:53;17.90;;;10.05;;
31306;SDS011;17935;51.120;13.132;2023-04-06T13:02:19;9.82;;;6.57;;
31306;SDS011;17935;51.120;13.132;2023-04-06T13:04:46;8.57;;;5.90;;
31306;SDS011;17935;51.120;13.132;2023-04-06T13:07:12;6.97;;;5.60;;
31306;SDS011;17935;51.120;13.132;2023-04-06T13:09:38;9.48;;;5.68;;
31306;SDS011;17935;51.120;13.132;2023-04-06T13:12:04;6.50;;;5.18;;
31306;SDS011;17935;51.120;13.132;2023-04-06T13:14:30;9.18;;;5.78;;
31306;SDS011;17935;51.120;13.132;2023-04-06T13:16:56;7.88;;;6.15;;
31306;SDS011;17935;51.120;13.132;2023-04-06T13:19:22;10.02;;;6.78;;
31306;SDS011;17935;51.120;13.132;2023-04-06T13:21:48;10.68;;;6.28;;
31306;SDS011;17935;51.120;13.132;2023-04-06T13:24:14;6.45;;;5.78;;
31306;SDS011;17935;51.120;13.132;2023-04-06T13:26:41;9.05;;;5.90;;
31306;SDS011;17935;51.120;13.132;2023-04-06T13:29:07;9.70;;;6.78;;
31306;SDS011;17935;51.120;13.132;2023-04-06T13:31:33;6.45;;;5.20;;
31306;SDS011;17935;51.120;13.132;2023-04-06T13:33:59;8.80;;;6.13;;
31306;SDS011;17935;51.120;13.132;2023-04-06T13:36:25;8.18;;;7.10;;
31306;SDS011;17935;51.120;13.132;2023-04-06T13:38:51;9.32;;;5.85;;
31306;SDS011;17935;51.120;13.132;2023-04-06T13:41:19;7.55;;;5.85;;
31306;SDS011;17935;51.120;13.132;2023-04-06T13:43:48;7.75;;;5.78;;
31306;SDS011;17935;51.120;13.132;2023-04-06T13:46:14;7.00;;;5.93;;
31306;SDS011;17935;51.120;13.132;2023-04-06T13:48:41;6.68;;;5.97;;
31306;SDS011;17935;51.120;13.132;2023-04-06T13:51:08;6.55;;;5.88;;
31306;SDS011;17935;51.120;13.132;2023-04-06T13:53:34;6.82;;;6.00;;
31306;SDS011;17935;51.120;13.132;2023-04-06T13:56:00;9.80;;;6.47;;
31306;SDS011;17935;51.120;13.132;2023-04-06T13:58:26;8.93;;;6.13;;
31306;SDS011;17935;51.120;13.132;2023-04-06T14:00:51;6.80;;;6.15;;
31306;SDS011;17935;51.120;13.132;2023-04-06T14:03:18;9.18;;;6.72;;
31306;SDS011;17935;51.120;13.132;2023-04-06T14:05:45;7.25;;;5.22;;
31306;SDS011;17935;51.120;13.132;2023-04-06T14:08:11;15.32;;;6.35;;
31306;SDS011;17935;51.120;13.132;2023-04-06T14:10:40;8.15;;;5.93;;
31306;SDS011;17935;51.120;13.132;2023-04-06T14:13:07;8.50;;;6.05;;
31306;SDS011;17935;51.120;13.132;2023-04-06T14:15:33;9.50;;;6.75;;
31306;SDS011;17935;51.120;13.132;2023-04-06T14:17:59;7.05;;;5.95;;
31306;SDS011;17935;51.120;13.132;2023-04-06T14:20:25;13.43;;;6.00;;
31306;SDS011;17935;51.120;13.132;2023-04-06T14:22:51;9.35;;;6.00;;
31306;SDS011;17935;51.120;13.132;2023-04-06T14:25:19;9.68;;;6.43;;
31306;SDS011;17935;51.120;13.132;2023-04-06T14:27:45;11.10;;;5.78;;
31306;SDS011;17935;51.120;13.132;2023-04-06T14:30:11;9.25;;;6.57;;